createdAt,value
2019-03-19T00:02:00.698Z,5.30
2019-03-19T00:04:26.835Z,5.33
2019-03-19T00:06:53.299Z,5.17
2019-03-19T00:09:19.631Z,6.73
2019-03-19T00:11:46.090Z,6.87
2019-03-19T00:14:12.303Z,5.87
2019-03-19T00:16:38.433Z,6.13
2019-03-19T00:19:04.688Z,6.40
2019-03-19T00:21:30.925Z,6.60
2019-03-19T00:23:57.155Z,7.80
2019-03-19T00:26:23.382Z,8.57
2019-03-19T00:28:49.682Z,7.40
2019-03-19T00:31:16.042Z,7.13
2019-03-19T00:33:42.273Z,7.30
2019-03-19T00:36:08.646Z,7.30
2019-03-19T00:38:36.798Z,6.23
2019-03-19T00:41:03.130Z,6.90
2019-03-19T00:43:29.448Z,6.83
2019-03-19T00:45:55.700Z,6.07
2019-03-19T00:48:21.982Z,6.30
2019-03-19T00:50:48.171Z,6.87
2019-03-19T00:53:18.143Z,7.53
2019-03-19T00:55:44.648Z,7.00
2019-03-19T00:58:10.978Z,6.17
2019-03-19T01:00:37.105Z,6.03
2019-03-19T01:03:03.542Z,5.70
2019-03-19T01:05:31.076Z,6.00
2019-03-19T01:07:58.231Z,7.37
2019-03-19T01:10:24.584Z,8.10
2019-03-19T01:12:50.827Z,7.40
2019-03-19T01:15:17.876Z,7.08
2019-03-19T01:17:44.224Z,7.50
2019-03-19T01:20:12.489Z,7.33
2019-03-19T01:22:43.201Z,6.70
2019-03-19T01:25:09.850Z,5.87
2019-03-19T01:27:36.704Z,5.47
2019-03-19T01:30:16.212Z,6.87
2019-03-19T01:32:44.454Z,4.77
2019-03-19T01:35:10.906Z,6.57
2019-03-19T01:37:43.671Z,5.93
2019-03-19T01:40:17.816Z,6.63
2019-03-19T01:42:43.400Z,6.10
2019-03-19T01:45:16.425Z,7.50
2019-03-19T01:47:49.614Z,6.93
2019-03-19T01:50:16.063Z,6.33
2019-03-19T01:52:43.199Z,6.27
2019-03-19T01:55:10.919Z,8.20
2019-03-19T01:57:42.337Z,6.90
2019-03-19T02:00:16.880Z,6.97
2019-03-19T02:02:43.904Z,6.40
2019-03-19T02:05:10.229Z,6.80
2019-03-19T02:07:36.612Z,6.83
2019-03-19T02:10:06.135Z,6.67
2019-03-19T02:12:32.540Z,7.83
2019-03-19T02:14:58.922Z,7.67
2019-03-19T02:17:25.127Z,9.07
2019-03-19T02:19:51.390Z,7.57
2019-03-19T02:22:17.873Z,11.37
2019-03-19T02:24:47.325Z,7.83
2019-03-19T02:27:14.469Z,7.60
2019-03-19T02:29:41.074Z,7.93
2019-03-19T02:32:07.416Z,6.87
2019-03-19T02:34:36.595Z,6.73
2019-03-19T02:37:06.586Z,7.10
2019-03-19T02:39:41.654Z,6.33
2019-03-19T02:42:10.740Z,5.97
2019-03-19T02:44:36.946Z,5.60
2019-03-19T02:47:03.938Z,5.60
2019-03-19T02:49:30.274Z,4.83
2019-03-19T02:51:58.784Z,5.10
2019-03-19T02:54:25.023Z,5.70
2019-03-19T02:56:53.327Z,5.10
2019-03-19T02:59:19.910Z,5.50
2019-03-19T03:01:47.419Z,5.20
2019-03-19T03:04:13.710Z,5.80
2019-03-19T03:06:49.209Z,4.80
2019-03-19T03:09:18.100Z,5.40
2019-03-19T03:11:48.210Z,5.17
2019-03-19T03:14:17.066Z,4.80
2019-03-19T03:16:45.319Z,5.10
2019-03-19T03:19:15.574Z,5.10
2019-03-19T03:21:46.658Z,5.67
2019-03-19T03:24:15.525Z,6.20
2019-03-19T03:26:48.039Z,6.87
2019-03-19T03:29:10.478Z,8.07
2019-03-19T03:31:36.797Z,6.23
2019-03-19T03:34:03.365Z,7.33
2019-03-19T03:36:31.903Z,6.30
2019-03-19T03:38:58.141Z,6.33
2019-03-19T03:41:26.391Z,6.70
2019-03-19T03:43:52.931Z,6.30
2019-03-19T03:46:19.261Z,6.13
2019-03-19T03:48:45.524Z,5.73
2019-03-19T03:51:11.904Z,6.17
2019-03-19T03:53:40.744Z,6.37
2019-03-19T03:56:07.199Z,6.07
2019-03-19T03:58:33.444Z,5.60
2019-03-19T04:01:00.041Z,6.90
2019-03-19T04:03:26.364Z,6.13
2019-03-19T04:05:52.940Z,6.30
2019-03-19T04:08:19.479Z,6.83
2019-03-19T04:10:53.537Z,7.73
2019-03-19T04:13:25.134Z,7.23
2019-03-19T04:15:51.201Z,8.70
2019-03-19T04:18:20.894Z,8.13
2019-03-19T04:20:47.152Z,7.90
2019-03-19T04:23:16.813Z,6.17
2019-03-19T04:25:44.103Z,6.47
2019-03-19T04:28:11.060Z,6.90
2019-03-19T04:30:40.241Z,6.27
2019-03-19T04:33:09.239Z,6.57
2019-03-19T04:35:36.262Z,5.37
2019-03-19T04:38:04.486Z,5.37
2019-03-19T04:40:32.901Z,4.60
2019-03-19T04:43:03.647Z,4.80
2019-03-19T04:45:29.892Z,4.62
2019-03-19T04:47:57.199Z,4.60
2019-03-19T04:50:23.370Z,4.90
2019-03-19T04:52:51.379Z,4.30
2019-03-19T04:55:17.683Z,4.97
2019-03-19T04:57:43.904Z,4.10
2019-03-19T05:00:13.838Z,3.93
2019-03-19T05:02:40.772Z,4.07
2019-03-19T05:05:09.471Z,4.30
2019-03-19T05:07:36.151Z,4.03
2019-03-19T05:10:05.507Z,5.07
2019-03-19T05:12:31.751Z,4.70
2019-03-19T05:14:58.012Z,4.70
2019-03-19T05:17:24.155Z,5.27
2019-03-19T05:19:50.565Z,4.57
2019-03-19T05:22:16.832Z,6.47
2019-03-19T05:24:43.140Z,6.73
2019-03-19T05:27:09.393Z,5.60
2019-03-19T05:29:35.546Z,5.30
2019-03-19T05:32:01.892Z,5.30
2019-03-19T05:34:33.802Z,8.73
2019-03-19T05:37:03.368Z,5.77
2019-03-19T05:39:37.072Z,6.43
2019-03-19T05:42:03.338Z,6.00
2019-03-19T05:44:29.611Z,4.83
2019-03-19T05:46:55.812Z,4.83
2019-03-19T05:49:22.402Z,5.53
2019-03-19T05:51:48.672Z,5.53
2019-03-19T05:54:14.937Z,6.00
2019-03-19T05:56:41.283Z,6.70
2019-03-19T05:59:07.665Z,7.53
2019-03-19T06:01:36.587Z,9.30
2019-03-19T06:04:03.599Z,11.40
2019-03-19T06:06:29.957Z,10.83
2019-03-19T06:08:56.202Z,10.30
2019-03-19T06:11:22.460Z,9.80
2019-03-19T06:13:56.302Z,9.97
2019-03-19T06:16:22.536Z,10.17
2019-03-19T06:18:50.363Z,9.67
2019-03-19T06:21:16.845Z,9.60
2019-03-19T06:23:52.252Z,8.13
2019-03-19T06:26:18.525Z,7.43
2019-03-19T06:28:44.739Z,6.53
2019-03-19T06:31:13.901Z,6.17
2019-03-19T06:33:42.817Z,6.20
2019-03-19T06:36:09.040Z,7.17
2019-03-19T06:38:35.865Z,6.13
2019-03-19T06:41:02.083Z,7.13
2019-03-19T06:43:29.177Z,9.30
2019-03-19T06:45:55.399Z,14.33
2019-03-19T06:48:21.760Z,12.40
2019-03-19T06:50:47.929Z,9.97
2019-03-19T06:53:14.148Z,11.40
2019-03-19T06:55:40.391Z,9.37
2019-03-19T06:58:11.037Z,8.03
2019-03-19T07:00:35.002Z,7.27
2019-03-19T07:03:01.262Z,6.63
2019-03-19T07:05:27.557Z,6.27
2019-03-19T07:07:53.846Z,6.17
2019-03-19T07:10:20.763Z,5.73
2019-03-19T07:12:46.994Z,5.63
2019-03-19T07:15:17.500Z,4.97
2019-03-19T07:17:43.854Z,7.80
2019-03-19T07:20:14.715Z,10.03
2019-03-19T07:22:45.584Z,9.50
2019-03-19T07:25:16.829Z,8.27
2019-03-19T07:27:44.841Z,8.50
2019-03-19T07:30:20.718Z,8.10
2019-03-19T07:32:47.057Z,6.87
2019-03-19T07:35:13.985Z,5.83
2019-03-19T07:37:40.334Z,5.33
2019-03-19T07:40:14.844Z,6.73
2019-03-19T07:42:47.017Z,5.93
2019-03-19T07:45:23.955Z,8.40
2019-03-19T07:47:55.187Z,7.50
2019-03-19T07:50:22.271Z,8.10
2019-03-19T07:52:55.648Z,7.50
2019-03-19T07:55:19.788Z,6.50
2019-03-19T07:57:46.034Z,6.53
2019-03-19T08:00:19.447Z,6.37
2019-03-19T08:02:45.786Z,6.57
2019-03-19T08:05:12.836Z,6.20
2019-03-19T08:07:39.200Z,5.77
2019-03-19T08:10:15.410Z,5.93
2019-03-19T08:12:41.699Z,6.10
2019-03-19T08:15:10.466Z,5.50
2019-03-19T08:17:36.839Z,5.73
2019-03-19T08:20:06.332Z,6.37
2019-03-19T08:22:32.800Z,6.70
2019-03-19T08:24:59.042Z,7.30
2019-03-19T08:27:25.287Z,6.63
2019-03-19T08:29:51.508Z,6.03
2019-03-19T08:32:17.746Z,6.43
2019-03-19T08:34:48.346Z,7.83
2019-03-19T08:37:15.592Z,6.00
2019-03-19T08:39:41.894Z,5.43
2019-03-19T08:42:13.310Z,5.20
2019-03-19T08:44:39.503Z,4.97
2019-03-19T08:47:06.773Z,5.43
2019-03-19T08:49:34.246Z,5.63
2019-03-19T08:52:00.797Z,8.30
2019-03-19T08:54:32.459Z,7.40
2019-03-19T08:56:59.271Z,6.60
2019-03-19T08:59:25.480Z,6.23
2019-03-19T09:01:51.705Z,5.80
2019-03-19T09:04:17.941Z,6.80
2019-03-19T09:06:44.130Z,7.07
2019-03-19T09:09:15.204Z,7.00
2019-03-19T09:11:41.532Z,7.43
2019-03-19T09:14:07.791Z,6.70
2019-03-19T09:16:40.549Z,5.50
2019-03-19T09:19:06.894Z,8.08
2019-03-19T09:21:33.076Z,8.10
2019-03-19T09:23:59.330Z,7.65
2019-03-19T09:26:30.952Z,6.97
2019-03-19T09:28:57.281Z,6.55
2019-03-19T09:31:40.210Z,5.83
2019-03-19T09:34:06.403Z,6.10
2019-03-19T09:36:32.766Z,4.97
2019-03-19T09:38:59.948Z,3.67
2019-03-19T09:41:26.276Z,4.25
2019-03-19T09:43:56.809Z,4.42
2019-03-19T09:46:23.044Z,3.80
2019-03-19T09:48:52.180Z,4.67
2019-03-19T09:51:20.395Z,4.08
2019-03-19T09:53:50.930Z,3.87
2019-03-19T09:56:17.449Z,4.70
2019-03-19T09:58:44.401Z,5.08
2019-03-19T10:01:10.728Z,5.43
2019-03-19T10:03:36.971Z,6.12
2019-03-19T10:06:13.679Z,4.35
2019-03-19T10:08:33.426Z,4.10
2019-03-19T10:11:04.827Z,6.22
2019-03-19T10:13:33.702Z,5.42
2019-03-19T10:16:01.901Z,6.90
2019-03-19T10:18:29.529Z,7.50
2019-03-19T10:20:56.862Z,6.40
2019-03-19T10:23:23.312Z,6.33
2019-03-19T10:25:53.298Z,6.45
2019-03-19T10:28:22.522Z,5.78
2019-03-19T10:30:48.985Z,5.62
2019-03-19T10:33:17.929Z,5.65
2019-03-19T10:35:47.575Z,4.85
2019-03-19T10:38:16.427Z,4.30
2019-03-19T10:40:45.497Z,3.50
2019-03-19T10:43:11.956Z,5.80
2019-03-19T10:45:39.020Z,5.70
2019-03-19T10:48:13.294Z,5.17
2019-03-19T10:50:39.517Z,4.83
2019-03-19T10:53:12.365Z,4.50
2019-03-19T10:55:47.719Z,4.10
2019-03-19T10:58:13.981Z,3.40
2019-03-19T11:00:41.235Z,5.53
2019-03-19T11:03:17.135Z,6.75
2019-03-19T11:05:50.541Z,5.33
2019-03-19T11:08:20.675Z,4.70
2019-03-19T11:10:49.661Z,4.10
2019-03-19T11:13:20.939Z,4.12
2019-03-19T11:15:56.052Z,4.10
2019-03-19T11:18:23.237Z,3.62
2019-03-19T11:20:51.789Z,4.62
2019-03-19T11:23:20.318Z,3.85
2019-03-19T11:25:54.078Z,3.62
2019-03-19T11:28:14.869Z,3.30
2019-03-19T11:30:46.433Z,3.60
2019-03-19T11:33:12.618Z,4.00
2019-03-19T11:35:38.858Z,3.80
2019-03-19T11:38:05.175Z,3.70
2019-03-19T11:40:31.560Z,4.00
2019-03-19T11:43:02.694Z,3.50
2019-03-19T11:45:29.087Z,4.70
2019-03-19T11:47:55.404Z,4.30
2019-03-19T11:50:28.009Z,4.30
2019-03-19T11:52:54.410Z,4.85
2019-03-19T11:55:20.722Z,4.20
2019-03-19T11:57:47.017Z,4.00
2019-03-19T12:00:27.160Z,3.35
2019-03-19T12:02:53.464Z,3.62
2019-03-19T12:05:23.370Z,5.57
2019-03-19T12:07:51.346Z,4.60
2019-03-19T12:10:17.652Z,6.33
2019-03-19T12:12:44.113Z,5.87
2019-03-19T12:15:11.293Z,4.33
2019-03-19T12:17:37.649Z,3.80
2019-03-19T12:20:14.479Z,3.92
2019-03-19T12:22:40.996Z,2.98
2019-03-19T12:25:08.744Z,3.42
2019-03-19T12:27:34.890Z,4.30
2019-03-19T12:30:04.877Z,3.98
2019-03-19T12:32:31.117Z,4.35
2019-03-19T12:34:57.691Z,5.00
2019-03-19T12:37:29.034Z,4.20
2019-03-19T12:39:56.872Z,3.15
2019-03-19T12:42:26.302Z,4.22
2019-03-19T12:44:54.613Z,4.23
2019-03-19T12:47:35.553Z,3.83
2019-03-19T12:50:03.673Z,4.90
2019-03-19T12:52:33.208Z,4.28
2019-03-19T12:54:59.347Z,5.72
2019-03-19T12:57:25.583Z,5.97
2019-03-19T12:59:54.628Z,6.65
2019-03-19T13:02:21.843Z,6.20
2019-03-19T13:04:53.573Z,5.60
2019-03-19T13:07:19.817Z,4.80
2019-03-19T13:09:46.031Z,4.00
2019-03-19T13:12:12.302Z,3.70
2019-03-19T13:14:38.538Z,3.70
2019-03-19T13:17:07.894Z,3.40
2019-03-19T13:19:34.258Z,2.92
2019-03-19T13:22:00.519Z,3.08
2019-03-19T13:24:31.793Z,2.60
2019-03-19T13:26:58.856Z,3.75
2019-03-19T13:29:27.267Z,4.85
2019-03-19T13:31:57.679Z,5.10
2019-03-19T13:34:31.510Z,4.40
2019-03-19T13:37:00.713Z,4.92
2019-03-19T13:39:27.071Z,4.12
2019-03-19T13:41:57.451Z,4.47
2019-03-19T13:44:29.188Z,4.28
2019-03-19T13:46:59.797Z,4.25
2019-03-19T13:49:29.217Z,5.37
2019-03-19T13:52:04.650Z,5.33
2019-03-19T13:54:34.156Z,5.50
2019-03-19T13:57:03.790Z,8.85
2019-03-19T13:59:30.169Z,6.05
2019-03-19T14:02:03.215Z,4.65
2019-03-19T14:07:27.099Z,4.78
2019-03-19T14:09:56.719Z,4.00
2019-03-19T14:12:31.752Z,4.70
2019-03-19T14:15:02.627Z,4.87
2019-03-19T14:17:28.975Z,6.92
2019-03-19T14:20:00.334Z,6.62
2019-03-19T14:22:33.288Z,5.83
2019-03-19T14:25:04.926Z,5.30
2019-03-19T14:27:46.858Z,4.65
2019-03-19T14:30:27.783Z,4.08
2019-03-19T14:32:58.452Z,4.35
2019-03-19T14:35:37.586Z,5.70
2019-03-19T14:38:17.483Z,7.03
2019-03-19T14:40:44.668Z,5.20
2019-03-19T14:43:16.402Z,6.22
2019-03-19T14:45:45.053Z,7.07
2019-03-19T14:48:13.538Z,5.67
2019-03-19T14:50:39.925Z,5.75
2019-03-19T14:53:10.925Z,6.17
2019-03-19T14:55:39.457Z,5.17
2019-03-19T14:58:05.981Z,5.67
2019-03-19T15:00:32.229Z,4.83
2019-03-19T15:03:04.981Z,5.22
2019-03-19T15:05:33.640Z,4.62
2019-03-19T15:07:59.998Z,4.37
2019-03-19T15:10:26.696Z,3.93
2019-03-19T15:12:52.964Z,3.67
2019-03-19T15:15:25.756Z,3.30
2019-03-19T15:20:46.735Z,3.85
2019-03-19T15:23:28.791Z,3.70
2019-03-19T15:25:55.286Z,3.83
2019-03-19T15:28:22.198Z,6.00
2019-03-19T15:30:50.563Z,4.47
2019-03-19T15:33:18.232Z,3.72
2019-03-19T15:35:52.349Z,3.33
2019-03-19T15:38:21.341Z,3.27
2019-03-19T15:40:50.033Z,2.90
2019-03-19T15:43:20.933Z,2.90
2019-03-19T15:45:53.572Z,2.47
2019-03-19T15:48:28.540Z,3.47
2019-03-19T15:50:57.600Z,4.30
2019-03-19T15:53:23.880Z,4.27
2019-03-19T15:55:54.596Z,4.70
2019-03-19T15:58:27.366Z,4.33
2019-03-19T16:00:54.483Z,4.30
2019-03-19T16:03:20.807Z,4.13
2019-03-19T16:05:47.861Z,3.80
2019-03-19T16:08:14.058Z,3.97
2019-03-19T16:10:40.215Z,4.13
2019-03-19T16:13:08.346Z,4.37
2019-03-19T16:15:37.094Z,3.80
2019-03-19T16:18:05.511Z,3.77
2019-03-19T16:20:35.019Z,5.10
2019-03-19T16:23:01.256Z,4.23
2019-03-19T16:25:27.499Z,3.90
2019-03-19T16:27:56.337Z,3.80
2019-03-19T16:30:23.236Z,4.83
2019-03-19T16:32:50.385Z,4.53
2019-03-19T16:35:17.228Z,6.60
2019-03-19T16:37:43.475Z,6.93
2019-03-19T16:40:13.214Z,5.80
2019-03-19T16:42:39.432Z,6.67
2019-03-19T16:45:08.390Z,5.07
2019-03-19T16:47:37.578Z,5.00
2019-03-19T16:50:11.886Z,4.03
2019-03-19T16:52:38.421Z,4.20
2019-03-19T16:55:08.279Z,3.77
2019-03-19T16:57:34.574Z,3.80
2019-03-19T17:00:16.884Z,4.17
2019-03-19T17:02:43.312Z,4.17
2019-03-19T17:05:10.247Z,3.40
2019-03-19T17:07:36.497Z,3.60
2019-03-19T17:10:08.918Z,3.40
2019-03-19T17:12:35.188Z,2.97
2019-03-19T17:15:02.427Z,3.50
2019-03-19T17:17:28.790Z,3.53
2019-03-19T17:19:57.668Z,3.40
2019-03-19T17:22:23.808Z,3.30
2019-03-19T17:25:00.428Z,3.17
2019-03-19T17:27:26.895Z,3.00
2019-03-19T17:29:53.910Z,2.97
2019-03-19T17:32:20.364Z,2.90
2019-03-19T17:34:49.083Z,2.93
2019-03-19T17:37:20.515Z,3.47
2019-03-19T17:40:05.625Z,3.53
2019-03-19T17:42:36.178Z,2.77
2019-03-19T17:45:04.451Z,2.60
2019-03-19T17:47:31.621Z,2.97
2019-03-19T17:50:04.749Z,2.93
2019-03-19T17:55:17.771Z,3.10
2019-03-19T18:00:37.626Z,2.87
2019-03-19T18:03:04.198Z,2.75
2019-03-19T18:05:30.839Z,3.00
2019-03-19T18:07:57.306Z,2.83
2019-03-19T18:10:23.614Z,2.87
2019-03-19T18:12:49.969Z,2.53
2019-03-19T18:15:24.192Z,2.47
2019-03-19T18:17:53.467Z,3.60
2019-03-19T18:20:21.014Z,3.33
2019-03-19T18:22:50.125Z,3.50
2019-03-19T18:25:21.816Z,3.17
2019-03-19T18:27:57.347Z,2.97
2019-03-19T18:30:26.640Z,2.73
2019-03-19T18:32:56.743Z,3.07
2019-03-19T18:35:27.204Z,3.25
2019-03-19T18:37:55.170Z,2.90
2019-03-19T18:40:23.862Z,2.57
2019-03-19T18:42:55.649Z,2.80
2019-03-19T18:45:26.772Z,2.87
2019-03-19T18:47:55.132Z,3.17
2019-03-19T18:50:30.500Z,3.27
2019-03-19T18:52:59.349Z,2.93
2019-03-19T18:55:25.568Z,3.40
2019-03-19T18:58:02.999Z,3.30
2019-03-19T19:00:33.030Z,3.27
2019-03-19T19:03:01.887Z,3.00
2019-03-19T19:05:28.836Z,3.10
2019-03-19T19:07:55.075Z,3.10
2019-03-19T19:10:22.105Z,2.97
2019-03-19T19:12:54.071Z,3.23
2019-03-19T19:15:24.330Z,2.77
2019-03-19T19:17:50.738Z,2.80
2019-03-19T19:20:17.538Z,2.40
2019-03-19T19:22:48.385Z,2.33
2019-03-19T19:25:19.546Z,2.28
2019-03-19T19:27:49.380Z,2.17
2019-03-19T19:30:25.988Z,2.40
2019-03-19T19:33:01.406Z,2.20
2019-03-19T19:35:23.026Z,2.30
2019-03-19T19:37:49.372Z,2.40
2019-03-19T19:40:18.409Z,2.20
2019-03-19T19:42:47.859Z,2.25
2019-03-19T19:45:17.913Z,2.20
2019-03-19T19:47:44.235Z,2.00
2019-03-19T19:50:13.280Z,2.10
2019-03-19T19:52:39.436Z,2.33
2019-03-19T19:55:15.673Z,2.17
2019-03-19T19:57:42.671Z,2.30
2019-03-19T20:00:16.200Z,2.10
2019-03-19T20:02:45.403Z,2.20
2019-03-19T20:05:11.819Z,2.10
2019-03-19T20:07:40.943Z,2.20
2019-03-19T20:10:19.928Z,2.00
2019-03-19T20:12:51.564Z,1.90
2019-03-19T20:15:17.777Z,2.50
2019-03-19T20:17:44.232Z,2.30
2019-03-19T20:20:16.485Z,2.40
2019-03-19T20:22:45.377Z,2.80
2019-03-19T20:25:11.804Z,2.87
2019-03-19T20:27:40.876Z,2.33
2019-03-19T20:30:10.555Z,2.23
2019-03-19T20:32:36.671Z,2.43
2019-03-19T20:35:09.545Z,2.50
2019-03-19T20:37:35.748Z,2.27
2019-03-19T20:40:05.249Z,2.50
2019-03-19T20:42:34.885Z,2.50
2019-03-19T20:45:01.132Z,2.40
2019-03-19T20:47:28.595Z,2.20
2019-03-19T20:50:01.794Z,2.47
2019-03-19T20:52:29.517Z,2.90
2019-03-19T20:54:58.645Z,2.53
2019-03-19T20:57:29.977Z,2.50
2019-03-19T20:59:56.207Z,2.60
2019-03-19T21:02:22.487Z,2.20
2019-03-19T21:04:55.325Z,2.50
2019-03-19T21:07:26.585Z,2.47
2019-03-19T21:09:52.954Z,2.50
2019-03-19T21:12:19.300Z,3.10
2019-03-19T21:14:45.854Z,3.07
2019-03-19T21:17:12.343Z,2.73
2019-03-19T21:19:38.596Z,2.90
2019-03-19T21:22:05.031Z,2.50
2019-03-19T21:24:31.209Z,3.37
2019-03-19T21:26:59.628Z,3.20
2019-03-19T21:29:25.907Z,3.20
2019-03-19T21:31:52.053Z,3.60
2019-03-19T21:34:18.417Z,4.50
2019-03-19T21:36:44.722Z,4.73
2019-03-19T21:39:11.199Z,4.40
2019-03-19T21:41:37.527Z,4.40
2019-03-19T21:44:03.999Z,5.70
2019-03-19T21:46:39.763Z,4.80
2019-03-19T21:49:11.777Z,4.23
2019-03-19T21:51:43.645Z,4.10
2019-03-19T21:54:17.970Z,4.10
2019-03-19T21:56:47.874Z,4.13
2019-03-19T21:59:16.881Z,3.67
2019-03-19T22:01:46.450Z,3.37
2019-03-19T22:04:12.677Z,3.00
2019-03-19T22:06:40.875Z,3.40
2019-03-19T22:09:07.198Z,3.73
2019-03-19T22:11:33.547Z,4.03
2019-03-19T22:13:59.945Z,4.50
2019-03-19T22:16:26.342Z,5.10
2019-03-19T22:18:53.067Z,4.53
2019-03-19T22:21:21.924Z,4.30
2019-03-19T22:23:48.296Z,4.30
2019-03-19T22:26:14.609Z,5.13
2019-03-19T22:28:43.549Z,4.30
2019-03-19T22:31:12.070Z,4.17
2019-03-19T22:33:38.399Z,3.40
2019-03-19T22:36:07.656Z,3.40
2019-03-19T22:38:34.176Z,3.80
2019-03-19T22:41:00.408Z,3.30
2019-03-19T22:43:29.473Z,3.30
2019-03-19T22:45:55.709Z,3.00
2019-03-19T22:48:24.962Z,3.53
2019-03-19T22:50:51.342Z,3.23
2019-03-19T22:53:17.713Z,3.30
2019-03-19T22:55:44.010Z,3.00
2019-03-19T22:58:16.219Z,3.07
2019-03-19T23:00:44.243Z,3.20
2019-03-19T23:03:10.696Z,3.10
2019-03-19T23:05:37.148Z,3.10
2019-03-19T23:08:03.611Z,2.70
2019-03-19T23:10:29.918Z,2.70
2019-03-19T23:12:59.653Z,2.67
2019-03-19T23:15:33.743Z,3.20
2019-03-19T23:18:00.107Z,2.70
2019-03-19T23:20:26.743Z,2.70
2019-03-19T23:22:52.995Z,2.40
2019-03-19T23:25:30.439Z,2.50
2019-03-19T23:27:51.998Z,2.53
2019-03-19T23:30:20.135Z,2.37
2019-03-19T23:32:46.366Z,2.50
2019-03-19T23:35:12.702Z,2.60
2019-03-19T23:37:39.057Z,2.50
2019-03-19T23:40:08.024Z,2.90
2019-03-19T23:42:36.222Z,2.70
2019-03-19T23:45:04.393Z,2.80
2019-03-19T23:47:30.645Z,3.12
2019-03-19T23:49:57.261Z,2.93
2019-03-19T23:52:23.457Z,3.25
2019-03-19T23:54:49.687Z,3.07
2019-03-19T23:57:15.985Z,2.70
2019-03-19T23:59:42.317Z,2.40
